Terminal Aerodrome Forecast
Issued by NWS Dallas/Fort Worth, TX

Home | Current Version | Previous Version | Text Only | Print | Product List | Glossary On
Versions: 1 2 3 4 5 6 7 8 9 10 11 12 13 14 15 16 17 18 19 20 21 22 23 24 25 26 27 28 29 30 31 32 33 34 35 36 37 38 39 40 41
000
FTUS44 KFWD 270827 AAA
TAFDFW
TAF AMD
KDFW 270827Z 2708/2812 10012KT P6SM BKN035 BKN110
     FM271200 06010KT P6SM BKN015
     FM271600 09010KT 5SM -RA BR VCTS BKN008CB
     FM271900 06010KT 5SM -SHRA BR VCTS BKN008CB PROB30 2719/2723
      4SM TSRA BKN008CB
     FM280000 03010KT 5SM -RA BR OVC006=

USA.gov is the U.S. government's official web portal to all federal, state and local government web resources and services.